sensor_id;sensor_type;location;lat;lon;timestamp;P1;durP1;ratioP1;P2;durP2;ratioP2
40815;SDS011;26535;48.788;9.214;2024-03-08T00:00:08;32.30;;;19.42;;
40815;SDS011;26535;48.788;9.214;2024-03-08T00:02:38;33.80;;;19.27;;
40815;SDS011;26535;48.788;9.214;2024-03-08T00:05:23;33.38;;;18.88;;
40815;SDS011;26535;48.788;9.214;2024-03-08T00:07:54;33.65;;;19.65;;
40815;SDS011;26535;48.788;9.214;2024-03-08T00:10:20;32.42;;;18.95;;
40815;SDS011;26535;48.788;9.214;2024-03-08T00:12:46;34.97;;;19.38;;
40815;SDS011;26535;48.788;9.214;2024-03-08T06:03:09;39.15;;;21.02;;
40815;SDS011;26535;48.788;9.214;2024-03-08T06:05:36;37.45;;;20.88;;
40815;SDS011;26535;48.788;9.214;2024-03-08T06:08:05;36.67;;;20.23;;
40815;SDS011;26535;48.788;9.214;2024-03-08T06:10:32;37.75;;;20.63;;
40815;SDS011;26535;48.788;9.214;2024-03-08T06:12:58;38.00;;;20.83;;
40815;SDS011;26535;48.788;9.214;2024-03-08T06:15:25;37.40;;;20.48;;
40815;SDS011;26535;48.788;9.214;2024-03-08T06:18:20;40.03;;;21.30;;
40815;SDS011;26535;48.788;9.214;2024-03-08T06:20:48;33.72;;;19.20;;
40815;SDS011;26535;48.788;9.214;2024-03-08T06:23:16;34.40;;;20.02;;
40815;SDS011;26535;48.788;9.214;2024-03-08T06:25:45;38.20;;;20.48;;
40815;SDS011;26535;48.788;9.214;2024-03-08T06:28:19;37.50;;;20.15;;
40815;SDS011;26535;48.788;9.214;2024-03-08T06:30:47;34.97;;;19.08;;
40815;SDS011;26535;48.788;9.214;2024-03-08T06:33:13;33.97;;;19.83;;
40815;SDS011;26535;48.788;9.214;2024-03-08T06:35:39;38.83;;;21.08;;
40815;SDS011;26535;48.788;9.214;2024-03-08T06:38:04;38.13;;;19.83;;
40815;SDS011;26535;48.788;9.214;2024-03-08T06:40:30;37.90;;;21.33;;
40815;SDS011;26535;48.788;9.214;2024-03-08T06:42:56;33.17;;;19.95;;
40815;SDS011;26535;48.788;9.214;2024-03-08T06:45:21;36.28;;;20.92;;
40815;SDS011;26535;48.788;9.214;2024-03-08T06:47:48;34.63;;;20.08;;
40815;SDS011;26535;48.788;9.214;2024-03-08T06:50:14;32.33;;;19.08;;
40815;SDS011;26535;48.788;9.214;2024-03-08T06:52:41;32.63;;;18.55;;
40815;SDS011;26535;48.788;9.214;2024-03-08T06:55:13;31.33;;;18.23;;
40815;SDS011;26535;48.788;9.214;2024-03-08T06:57:41;31.75;;;18.02;;
40815;SDS011;26535;48.788;9.214;2024-03-08T07:00:07;31.05;;;17.63;;
40815;SDS011;26535;48.788;9.214;2024-03-08T07:02:43;33.70;;;17.45;;
40815;SDS011;26535;48.788;9.214;2024-03-08T07:05:11;36.78;;;19.33;;
40815;SDS011;26535;48.788;9.214;2024-03-08T07:07:37;29.67;;;17.00;;
40815;SDS011;26535;48.788;9.214;2024-03-08T07:10:03;30.63;;;16.52;;
40815;SDS011;26535;48.788;9.214;2024-03-08T07:12:29;28.38;;;15.45;;
40815;SDS011;26535;48.788;9.214;2024-03-08T07:14:55;30.02;;;17.42;;
40815;SDS011;26535;48.788;9.214;2024-03-08T07:17:21;28.40;;;15.80;;
40815;SDS011;26535;48.788;9.214;2024-03-08T07:19:47;27.73;;;16.00;;
40815;SDS011;26535;48.788;9.214;2024-03-08T07:22:13;27.95;;;15.80;;
40815;SDS011;26535;48.788;9.214;2024-03-08T07:24:39;22.85;;;15.02;;
40815;SDS011;26535;48.788;9.214;2024-03-08T07:27:25;25.83;;;15.25;;
40815;SDS011;26535;48.788;9.214;2024-03-08T07:29:50;26.90;;;15.23;;
40815;SDS011;26535;48.788;9.214;2024-03-08T07:32:20;28.38;;;15.45;;
40815;SDS011;26535;48.788;9.214;2024-03-08T07:34:50;23.45;;;13.93;;
40815;SDS011;26535;48.788;9.214;2024-03-08T07:37:19;29.13;;;15.15;;
40815;SDS011;26535;48.788;9.214;2024-03-08T07:39:45;24.60;;;14.02;;
40815;SDS011;26535;48.788;9.214;2024-03-08T07:42:11;26.33;;;14.80;;
40815;SDS011;26535;48.788;9.214;2024-03-08T07:44:37;25.92;;;14.65;;
40815;SDS011;26535;48.788;9.214;2024-03-08T07:47:04;25.35;;;13.88;;
40815;SDS011;26535;48.788;9.214;2024-03-08T07:49:30;31.23;;;15.18;;
40815;SDS011;26535;48.788;9.214;2024-03-08T07:51:56;24.65;;;14.65;;
40815;SDS011;26535;48.788;9.214;2024-03-08T07:54:25;25.92;;;13.75;;
40815;SDS011;26535;48.788;9.214;2024-03-08T07:56:51;25.35;;;14.55;;
40815;SDS011;26535;48.788;9.214;2024-03-08T07:59:17;27.73;;;14.77;;
40815;SDS011;26535;48.788;9.214;2024-03-08T08:01:43;26.20;;;15.00;;
40815;SDS011;26535;48.788;9.214;2024-03-08T08:04:20;24.35;;;13.93;;
40815;SDS011;26535;48.788;9.214;2024-03-08T08:06:49;22.60;;;13.85;;
40815;SDS011;26535;48.788;9.214;2024-03-08T08:09:20;24.67;;;14.13;;
40815;SDS011;26535;48.788;9.214;2024-03-08T08:11:54;26.23;;;14.52;;
40815;SDS011;26535;48.788;9.214;2024-03-08T08:14:20;24.60;;;13.60;;
40815;SDS011;26535;48.788;9.214;2024-03-08T08:16:55;27.63;;;14.38;;
40815;SDS011;26535;48.788;9.214;2024-03-08T08:19:22;22.70;;;13.23;;
40815;SDS011;26535;48.788;9.214;2024-03-08T08:21:51;22.77;;;13.60;;
40815;SDS011;26535;48.788;9.214;2024-03-08T08:24:25;24.17;;;13.27;;
40815;SDS011;26535;48.788;9.214;2024-03-08T08:26:51;23.88;;;14.18;;
40815;SDS011;26535;48.788;9.214;2024-03-08T08:29:17;25.55;;;14.07;;
40815;SDS011;26535;48.788;9.214;2024-03-08T08:31:43;23.75;;;13.68;;
40815;SDS011;26535;48.788;9.214;2024-03-08T08:34:18;24.88;;;13.98;;
40815;SDS011;26535;48.788;9.214;2024-03-08T08:36:47;25.33;;;13.52;;
40815;SDS011;26535;48.788;9.214;2024-03-08T08:39:13;23.55;;;14.25;;
40815;SDS011;26535;48.788;9.214;2024-03-08T08:41:39;24.17;;;13.65;;
40815;SDS011;26535;48.788;9.214;2024-03-08T08:44:06;24.05;;;14.27;;
40815;SDS011;26535;48.788;9.214;2024-03-08T08:46:37;24.27;;;13.98;;
40815;SDS011;26535;48.788;9.214;2024-03-08T08:49:04;24.50;;;13.20;;
40815;SDS011;26535;48.788;9.214;2024-03-08T08:51:31;22.40;;;13.83;;
40815;SDS011;26535;48.788;9.214;2024-03-08T08:53:58;21.92;;;13.65;;
40815;SDS011;26535;48.788;9.214;2024-03-08T08:56:24;22.48;;;13.02;;
40815;SDS011;26535;48.788;9.214;2024-03-08T08:58:51;23.05;;;12.63;;
40815;SDS011;26535;48.788;9.214;2024-03-08T09:01:19;23.55;;;12.93;;
40815;SDS011;26535;48.788;9.214;2024-03-08T09:03:45;23.10;;;13.13;;
40815;SDS011;26535;48.788;9.214;2024-03-08T09:06:15;21.50;;;12.57;;
40815;SDS011;26535;48.788;9.214;2024-03-08T09:08:42;22.00;;;12.18;;
40815;SDS011;26535;48.788;9.214;2024-03-08T09:11:09;23.20;;;13.50;;
40815;SDS011;26535;48.788;9.214;2024-03-08T09:13:35;22.05;;;12.15;;
40815;SDS011;26535;48.788;9.214;2024-03-08T09:16:04;22.20;;;12.80;;
40815;SDS011;26535;48.788;9.214;2024-03-08T09:18:30;21.45;;;12.70;;
40815;SDS011;26535;48.788;9.214;2024-03-08T09:20:57;19.98;;;12.00;;
40815;SDS011;26535;48.788;9.214;2024-03-08T09:23:24;23.10;;;13.20;;
40815;SDS011;26535;48.788;9.214;2024-03-08T09:25:55;20.13;;;12.27;;
40815;SDS011;26535;48.788;9.214;2024-03-08T09:28:22;22.02;;;12.25;;
40815;SDS011;26535;48.788;9.214;2024-03-08T09:30:48;21.85;;;12.98;;
40815;SDS011;26535;48.788;9.214;2024-03-08T09:33:14;21.30;;;12.82;;
40815;SDS011;26535;48.788;9.214;2024-03-08T09:35:44;20.75;;;12.70;;
40815;SDS011;26535;48.788;9.214;2024-03-08T09:38:12;23.88;;;13.32;;
40815;SDS011;26535;48.788;9.214;2024-03-08T09:40:38;22.50;;;12.95;;
40815;SDS011;26535;48.788;9.214;2024-03-08T09:43:07;22.00;;;12.90;;
40815;SDS011;26535;48.788;9.214;2024-03-08T09:45:35;21.55;;;12.48;;
40815;SDS011;26535;48.788;9.214;2024-03-08T09:48:04;23.73;;;13.13;;
40815;SDS011;26535;48.788;9.214;2024-03-08T09:50:31;21.25;;;12.98;;
40815;SDS011;26535;48.788;9.214;2024-03-08T09:52:57;20.75;;;12.60;;
40815;SDS011;26535;48.788;9.214;2024-03-08T09:55:23;23.63;;;13.05;;
40815;SDS011;26535;48.788;9.214;2024-03-08T09:57:51;20.77;;;12.13;;
40815;SDS011;26535;48.788;9.214;2024-03-08T10:00:36;20.85;;;12.40;;
40815;SDS011;26535;48.788;9.214;2024-03-08T10:03:02;19.35;;;12.52;;
40815;SDS011;26535;48.788;9.214;2024-03-08T10:05:28;19.98;;;11.90;;
40815;SDS011;26535;48.788;9.214;2024-03-08T10:07:58;20.55;;;12.35;;
40815;SDS011;26535;48.788;9.214;2024-03-08T10:10:23;18.55;;;11.73;;
40815;SDS011;26535;48.788;9.214;2024-03-08T10:12:49;20.92;;;12.75;;
40815;SDS011;26535;48.788;9.214;2024-03-08T10:15:16;22.60;;;12.73;;
40815;SDS011;26535;48.788;9.214;2024-03-08T10:17:41;21.33;;;11.95;;
40815;SDS011;26535;48.788;9.214;2024-03-08T10:20:14;18.92;;;11.55;;
40815;SDS011;26535;48.788;9.214;2024-03-08T10:22:41;21.98;;;12.30;;
40815;SDS011;26535;48.788;9.214;2024-03-08T10:25:12;19.55;;;11.80;;
40815;SDS011;26535;48.788;9.214;2024-03-08T10:27:39;20.98;;;11.80;;
40815;SDS011;26535;48.788;9.214;2024-03-08T10:30:06;22.27;;;11.77;;
40815;SDS011;26535;48.788;9.214;2024-03-08T10:32:45;19.02;;;11.73;;
40815;SDS011;26535;48.788;9.214;2024-03-08T10:35:11;17.17;;;10.63;;
40815;SDS011;26535;48.788;9.214;2024-03-08T10:37:46;21.30;;;11.02;;
40815;SDS011;26535;48.788;9.214;2024-03-08T10:40:27;17.83;;;10.88;;
40815;SDS011;26535;48.788;9.214;2024-03-08T10:42:57;20.73;;;11.77;;
40815;SDS011;26535;48.788;9.214;2024-03-08T10:45:31;18.10;;;11.48;;
40815;SDS011;26535;48.788;9.214;2024-03-08T10:48:02;17.27;;;11.10;;
40815;SDS011;26535;48.788;9.214;2024-03-08T10:50:29;16.67;;;10.93;;
40815;SDS011;26535;48.788;9.214;2024-03-08T10:52:59;18.48;;;11.57;;
40815;SDS011;26535;48.788;9.214;2024-03-08T10:55:26;16.80;;;10.80;;
40815;SDS011;26535;48.788;9.214;2024-03-08T10:57:53;19.85;;;12.07;;
40815;SDS011;26535;48.788;9.214;2024-03-08T11:00:19;20.88;;;12.52;;
40815;SDS011;26535;48.788;9.214;2024-03-08T11:02:51;18.65;;;11.88;;
40815;SDS011;26535;48.788;9.214;2024-03-08T11:05:37;21.33;;;11.88;;
40815;SDS011;26535;48.788;9.214;2024-03-08T11:08:19;21.05;;;11.73;;
40815;SDS011;26535;48.788;9.214;2024-03-08T11:10:52;19.48;;;11.68;;
40815;SDS011;26535;48.788;9.214;2024-03-08T11:16:36;17.83;;;10.82;;
40815;SDS011;26535;48.788;9.214;2024-03-08T11:18:58;19.08;;;11.50;;
40815;SDS011;26535;48.788;9.214;2024-03-08T11:21:31;19.63;;;12.18;;
40815;SDS011;26535;48.788;9.214;2024-03-08T11:24:13;18.83;;;11.45;;
40815;SDS011;26535;48.788;9.214;2024-03-08T11:26:41;19.27;;;11.95;;
40815;SDS011;26535;48.788;9.214;2024-03-08T11:34:35;19.27;;;11.75;;
40815;SDS011;26535;48.788;9.214;2024-03-08T11:37:03;18.65;;;11.75;;
40815;SDS011;26535;48.788;9.214;2024-03-08T11:39:30;17.17;;;11.35;;
40815;SDS011;26535;48.788;9.214;2024-03-08T11:41:56;19.48;;;12.18;;
40815;SDS011;26535;48.788;9.214;2024-03-08T11:44:26;17.85;;;12.10;;
40815;SDS011;26535;48.788;9.214;2024-03-08T11:46:52;20.10;;;12.98;;
40815;SDS011;26535;48.788;9.214;2024-03-08T11:49:19;19.75;;;12.10;;
40815;SDS011;26535;48.788;9.214;2024-03-08T11:51:52;18.05;;;12.07;;
40815;SDS011;26535;48.788;9.214;2024-03-08T11:54:21;16.70;;;11.52;;
40815;SDS011;26535;48.788;9.214;2024-03-08T11:56:51;17.38;;;11.50;;
40815;SDS011;26535;48.788;9.214;2024-03-08T11:59:17;17.75;;;12.20;;
40815;SDS011;26535;48.788;9.214;2024-03-08T12:01:43;17.42;;;12.70;;
40815;SDS011;26535;48.788;9.214;2024-03-08T12:04:21;17.20;;;11.95;;
40815;SDS011;26535;48.788;9.214;2024-03-08T12:06:49;15.90;;;11.40;;
40815;SDS011;26535;48.788;9.214;2024-03-08T12:09:15;18.02;;;12.65;;
40815;SDS011;26535;48.788;9.214;2024-03-08T12:11:41;17.30;;;12.32;;
40815;SDS011;26535;48.788;9.214;2024-03-08T12:14:08;17.83;;;12.95;;
40815;SDS011;26535;48.788;9.214;2024-03-08T12:16:34;15.65;;;11.93;;
40815;SDS011;26535;48.788;9.214;2024-03-08T12:19:13;16.25;;;12.20;;
40815;SDS011;26535;48.788;9.214;2024-03-08T12:21:43;17.20;;;13.18;;
40815;SDS011;26535;48.788;9.214;2024-03-08T12:24:16;21.98;;;12.82;;
40815;SDS011;26535;48.788;9.214;2024-03-08T12:26:46;18.10;;;12.57;;
40815;SDS011;26535;48.788;9.214;2024-03-08T12:31:51;17.88;;;13.45;;
40815;SDS011;26535;48.788;9.214;2024-03-08T12:34:20;16.75;;;12.80;;
40815;SDS011;26535;48.788;9.214;2024-03-08T12:36:50;17.40;;;12.55;;
40815;SDS011;26535;48.788;9.214;2024-03-08T12:39:19;16.70;;;12.27;;
40815;SDS011;26535;48.788;9.214;2024-03-08T12:41:54;17.80;;;13.55;;
40815;SDS011;26535;48.788;9.214;2024-03-08T12:44:27;19.73;;;13.25;;
40815;SDS011;26535;48.788;9.214;2024-03-08T12:46:55;16.48;;;12.57;;
40815;SDS011;26535;48.788;9.214;2024-03-08T12:49:23;16.08;;;12.65;;
40815;SDS011;26535;48.788;9.214;2024-03-08T12:51:55;19.15;;;13.25;;
40815;SDS011;26535;48.788;9.214;2024-03-08T12:54:24;16.80;;;13.05;;
40815;SDS011;26535;48.788;9.214;2024-03-08T12:56:49;16.73;;;13.23;;
40815;SDS011;26535;48.788;9.214;2024-03-08T12:59:18;15.43;;;12.45;;
40815;SDS011;26535;48.788;9.214;2024-03-08T13:01:44;16.92;;;13.55;;
40815;SDS011;26535;48.788;9.214;2024-03-08T13:04:12;18.05;;;12.93;;
40815;SDS011;26535;48.788;9.214;2024-03-08T13:06:41;17.10;;;13.20;;
40815;SDS011;26535;48.788;9.214;2024-03-08T13:09:07;16.23;;;12.57;;
40815;SDS011;26535;48.788;9.214;2024-03-08T13:11:33;16.80;;;12.18;;
40815;SDS011;26535;48.788;9.214;2024-03-08T13:14:02;18.33;;;13.68;;
40815;SDS011;26535;48.788;9.214;2024-03-08T13:16:29;16.23;;;13.18;;
40815;SDS011;26535;48.788;9.214;2024-03-08T13:18:54;16.60;;;13.10;;
40815;SDS011;26535;48.788;9.214;2024-03-08T13:21:22;19.10;;;13.30;;
40815;SDS011;26535;48.788;9.214;2024-03-08T13:23:49;17.83;;;13.10;;
40815;SDS011;26535;48.788;9.214;2024-03-08T13:26:15;16.98;;;13.15;;
40815;SDS011;26535;48.788;9.214;2024-03-08T13:28:48;16.77;;;13.13;;
40815;SDS011;26535;48.788;9.214;2024-03-08T13:31:18;16.77;;;12.82;;
40815;SDS011;26535;48.788;9.214;2024-03-08T13:33:47;17.83;;;13.10;;
40815;SDS011;26535;48.788;9.214;2024-03-08T13:36:13;17.75;;;13.57;;
40815;SDS011;26535;48.788;9.214;2024-03-08T13:38:43;18.55;;;13.57;;
40815;SDS011;26535;48.788;9.214;2024-03-08T13:41:13;19.70;;;13.80;;
40815;SDS011;26535;48.788;9.214;2024-03-08T13:43:40;19.25;;;13.20;;
40815;SDS011;26535;48.788;9.214;2024-03-08T13:46:06;15.80;;;12.82;;
40815;SDS011;26535;48.788;9.214;2024-03-08T13:48:33;16.73;;;13.15;;
40815;SDS011;26535;48.788;9.214;2024-03-08T13:50:59;16.45;;;12.88;;
40815;SDS011;26535;48.788;9.214;2024-03-08T13:53:25;17.25;;;13.55;;
40815;SDS011;26535;48.788;9.214;2024-03-08T13:55:51;16.70;;;12.75;;
40815;SDS011;26535;48.788;9.214;2024-03-08T13:58:17;17.38;;;13.68;;
40815;SDS011;26535;48.788;9.214;2024-03-08T14:00:45;17.83;;;12.98;;
40815;SDS011;26535;48.788;9.214;2024-03-08T14:03:13;18.55;;;13.45;;
40815;SDS011;26535;48.788;9.214;2024-03-08T14:05:39;17.75;;;12.95;;
40815;SDS011;26535;48.788;9.214;2024-03-08T14:08:06;16.00;;;12.60;;
40815;SDS011;26535;48.788;9.214;2024-03-08T14:10:38;17.27;;;12.60;;
40815;SDS011;26535;48.788;9.214;2024-03-08T14:13:04;14.75;;;11.95;;
40815;SDS011;26535;48.788;9.214;2024-03-08T14:15:31;16.63;;;12.77;;
40815;SDS011;26535;48.788;9.214;2024-03-08T14:17:58;15.57;;;12.10;;
40815;SDS011;26535;48.788;9.214;2024-03-08T14:20:24;15.98;;;12.65;;
40815;SDS011;26535;48.788;9.214;2024-03-08T14:22:53;16.13;;;12.25;;
40815;SDS011;26535;48.788;9.214;2024-03-08T14:25:23;15.35;;;12.13;;
40815;SDS011;26535;48.788;9.214;2024-03-08T14:27:49;16.38;;;12.15;;
40815;SDS011;26535;48.788;9.214;2024-03-08T14:30:19;16.80;;;12.68;;
40815;SDS011;26535;48.788;9.214;2024-03-08T14:32:59;15.27;;;11.25;;
40815;SDS011;26535;48.788;9.214;2024-03-08T14:35:30;15.23;;;11.95;;
40815;SDS011;26535;48.788;9.214;2024-03-08T14:37:56;15.88;;;12.88;;
40815;SDS011;26535;48.788;9.214;2024-03-08T14:40:26;15.38;;;12.07;;
40815;SDS011;26535;48.788;9.214;2024-03-08T14:42:52;15.32;;;11.75;;
40815;SDS011;26535;48.788;9.214;2024-03-08T14:45:18;15.90;;;11.98;;
40815;SDS011;26535;48.788;9.214;2024-03-08T14:47:48;14.32;;;11.55;;
40815;SDS011;26535;48.788;9.214;2024-03-08T14:50:17;17.15;;;12.27;;
40815;SDS011;26535;48.788;9.214;2024-03-08T14:52:48;16.15;;;12.50;;
40815;SDS011;26535;48.788;9.214;2024-03-08T14:55:14;14.82;;;12.07;;
40815;SDS011;26535;48.788;9.214;2024-03-08T14:57:41;14.15;;;11.80;;
40815;SDS011;26535;48.788;9.214;2024-03-08T15:00:10;17.00;;;12.85;;
40815;SDS011;26535;48.788;9.214;2024-03-08T15:02:43;16.33;;;13.07;;
40815;SDS011;26535;48.788;9.214;2024-03-08T15:05:10;15.02;;;12.38;;
40815;SDS011;26535;48.788;9.214;2024-03-08T15:07:38;17.27;;;12.48;;
40815;SDS011;26535;48.788;9.214;2024-03-08T15:10:08;15.27;;;12.63;;
40815;SDS011;26535;48.788;9.214;2024-03-08T15:12:44;16.77;;;13.23;;
40815;SDS011;26535;48.788;9.214;2024-03-08T15:15:12;15.70;;;12.20;;
40815;SDS011;26535;48.788;9.214;2024-03-08T15:17:39;16.00;;;12.32;;
40815;SDS011;26535;48.788;9.214;2024-03-08T15:20:06;15.43;;;12.05;;
40815;SDS011;26535;48.788;9.214;2024-03-08T15:22:53;14.68;;;11.20;;
40815;SDS011;26535;48.788;9.214;2024-03-08T15:25:23;15.98;;;12.23;;
40815;SDS011;26535;48.788;9.214;2024-03-08T15:27:53;15.02;;;11.77;;
40815;SDS011;26535;48.788;9.214;2024-03-08T15:30:19;15.73;;;12.55;;
40815;SDS011;26535;48.788;9.214;2024-03-08T15:32:49;14.68;;;11.90;;
40815;SDS011;26535;48.788;9.214;2024-03-08T15:35:26;18.97;;;12.00;;
40815;SDS011;26535;48.788;9.214;2024-03-08T15:37:52;15.55;;;11.93;;
40815;SDS011;26535;48.788;9.214;2024-03-08T15:40:19;15.10;;;12.10;;
40815;SDS011;26535;48.788;9.214;2024-03-08T15:45:20;16.65;;;12.02;;
40815;SDS011;26535;48.788;9.214;2024-03-08T15:47:45;13.82;;;11.05;;
40815;SDS011;26535;48.788;9.214;2024-03-08T15:50:11;16.15;;;10.98;;
40815;SDS011;26535;48.788;9.214;2024-03-08T15:52:38;14.48;;;11.73;;
40815;SDS011;26535;48.788;9.214;2024-03-08T15:55:07;15.35;;;11.18;;
40815;SDS011;26535;48.788;9.214;2024-03-08T15:57:33;14.90;;;11.35;;
40815;SDS011;26535;48.788;9.214;2024-03-08T15:59:58;12.93;;;10.15;;
40815;SDS011;26535;48.788;9.214;2024-03-08T16:02:28;15.75;;;11.43;;
40815;SDS011;26535;48.788;9.214;2024-03-08T16:04:53;14.77;;;11.38;;
40815;SDS011;26535;48.788;9.214;2024-03-08T16:07:19;12.75;;;10.32;;
40815;SDS011;26535;48.788;9.214;2024-03-08T16:09:45;14.43;;;11.02;;
40815;SDS011;26535;48.788;9.214;2024-03-08T16:12:11;14.90;;;11.35;;
40815;SDS011;26535;48.788;9.214;2024-03-08T16:14:37;15.10;;;10.55;;
40815;SDS011;26535;48.788;9.214;2024-03-08T16:17:05;16.33;;;11.93;;
40815;SDS011;26535;48.788;9.214;2024-03-08T16:19:32;15.55;;;11.60;;
40815;SDS011;26535;48.788;9.214;2024-03-08T16:21:57;17.05;;;11.65;;
40815;SDS011;26535;48.788;9.214;2024-03-08T16:24:23;16.38;;;11.57;;
40815;SDS011;26535;48.788;9.214;2024-03-08T16:26:49;16.35;;;10.82;;
40815;SDS011;26535;48.788;9.214;2024-03-08T16:29:14;16.25;;;11.98;;
40815;SDS011;26535;48.788;9.214;2024-03-08T16:31:41;16.90;;;11.60;;
40815;SDS011;26535;48.788;9.214;2024-03-08T16:34:10;16.40;;;11.95;;
40815;SDS011;26535;48.788;9.214;2024-03-08T16:36:37;15.50;;;11.15;;
40815;SDS011;26535;48.788;9.214;2024-03-08T16:39:05;18.83;;;11.77;;
40815;SDS011;26535;48.788;9.214;2024-03-08T16:41:31;15.65;;;10.68;;
40815;SDS011;26535;48.788;9.214;2024-03-08T16:43:57;16.83;;;11.32;;
40815;SDS011;26535;48.788;9.214;2024-03-08T16:46:23;16.50;;;11.32;;
40815;SDS011;26535;48.788;9.214;2024-03-08T16:48:48;16.67;;;10.98;;
40815;SDS011;26535;48.788;9.214;2024-03-08T16:51:14;19.85;;;11.57;;
40815;SDS011;26535;48.788;9.214;2024-03-08T16:53:40;18.40;;;11.45;;
40815;SDS011;26535;48.788;9.214;2024-03-08T16:56:06;16.73;;;10.63;;
40815;SDS011;26535;48.788;9.214;2024-03-08T16:58:37;16.65;;;10.73;;
40815;SDS011;26535;48.788;9.214;2024-03-08T17:01:03;18.85;;;11.85;;
40815;SDS011;26535;48.788;9.214;2024-03-08T17:03:29;18.33;;;11.52;;
40815;SDS011;26535;48.788;9.214;2024-03-08T17:05:54;17.33;;;11.25;;
40815;SDS011;26535;48.788;9.214;2024-03-08T17:08:21;18.33;;;11.05;;
40815;SDS011;26535;48.788;9.214;2024-03-08T17:10:47;18.55;;;10.48;;
40815;SDS011;26535;48.788;9.214;2024-03-08T17:13:13;19.65;;;11.45;;
40815;SDS011;26535;48.788;9.214;2024-03-08T17:15:40;20.10;;;11.32;;
40815;SDS011;26535;48.788;9.214;2024-03-08T17:18:07;19.00;;;10.95;;
40815;SDS011;26535;48.788;9.214;2024-03-08T17:20:34;19.13;;;11.48;;
40815;SDS011;26535;48.788;9.214;2024-03-08T17:23:06;18.40;;;10.75;;
40815;SDS011;26535;48.788;9.214;2024-03-08T17:25:33;18.42;;;10.98;;
40815;SDS011;26535;48.788;9.214;2024-03-08T17:28:00;18.58;;;10.63;;
40815;SDS011;26535;48.788;9.214;2024-03-08T17:30:31;19.90;;;10.80;;
40815;SDS011;26535;48.788;9.214;2024-03-08T17:33:01;17.77;;;10.57;;
40815;SDS011;26535;48.788;9.214;2024-03-08T17:35:35;19.35;;;11.27;;
40815;SDS011;26535;48.788;9.214;2024-03-08T17:38:03;21.00;;;11.65;;
40815;SDS011;26535;48.788;9.214;2024-03-08T17:40:36;16.00;;;10.00;;
40815;SDS011;26535;48.788;9.214;2024-03-08T17:43:06;20.17;;;10.93;;
40815;SDS011;26535;48.788;9.214;2024-03-08T17:45:37;18.58;;;10.50;;
40815;SDS011;26535;48.788;9.214;2024-03-08T17:48:04;20.40;;;10.48;;
40815;SDS011;26535;48.788;9.214;2024-03-08T17:50:51;18.83;;;10.50;;
40815;SDS011;26535;48.788;9.214;2024-03-08T17:53:19;17.55;;;10.57;;
40815;SDS011;26535;48.788;9.214;2024-03-08T17:55:44;17.60;;;10.23;;
40815;SDS011;26535;48.788;9.214;2024-03-08T17:58:10;17.02;;;10.05;;
40815;SDS011;26535;48.788;9.214;2024-03-08T18:00:36;17.67;;;9.88;;
40815;SDS011;26535;48.788;9.214;2024-03-08T18:03:07;17.45;;;10.10;;
40815;SDS011;26535;48.788;9.214;2024-03-08T18:05:43;17.77;;;10.30;;
40815;SDS011;26535;48.788;9.214;2024-03-08T18:08:09;16.70;;;9.93;;
40815;SDS011;26535;48.788;9.214;2024-03-08T18:10:36;22.50;;;12.88;;
40815;SDS011;26535;48.788;9.214;2024-03-08T18:13:03;24.17;;;13.25;;
40815;SDS011;26535;48.788;9.214;2024-03-08T18:15:41;21.60;;;11.32;;
40815;SDS011;26535;48.788;9.214;2024-03-08T18:18:08;18.92;;;10.95;;
40815;SDS011;26535;48.788;9.214;2024-03-08T18:20:36;23.48;;;12.90;;
40815;SDS011;26535;48.788;9.214;2024-03-08T18:23:16;21.73;;;12.00;;
40815;SDS011;26535;48.788;9.214;2024-03-08T18:25:42;20.83;;;11.32;;
40815;SDS011;26535;48.788;9.214;2024-03-08T18:28:12;20.85;;;10.85;;
40815;SDS011;26535;48.788;9.214;2024-03-08T18:30:39;18.20;;;10.23;;
40815;SDS011;26535;48.788;9.214;2024-03-08T18:33:05;17.88;;;10.38;;
40815;SDS011;26535;48.788;9.214;2024-03-08T18:35:36;20.45;;;11.00;;
40815;SDS011;26535;48.788;9.214;2024-03-08T18:38:03;17.67;;;10.25;;
40815;SDS011;26535;48.788;9.214;2024-03-08T18:40:32;20.65;;;11.02;;
40815;SDS011;26535;48.788;9.214;2024-03-08T18:42:58;18.58;;;10.73;;
40815;SDS011;26535;48.788;9.214;2024-03-08T18:45:25;17.20;;;9.68;;
40815;SDS011;26535;48.788;9.214;2024-03-08T18:47:53;16.50;;;9.20;;
40815;SDS011;26535;48.788;9.214;2024-03-08T18:50:22;17.58;;;10.13;;
40815;SDS011;26535;48.788;9.214;2024-03-08T18:52:49;18.83;;;9.52;;
40815;SDS011;26535;48.788;9.214;2024-03-08T18:55:16;17.90;;;9.98;;
40815;SDS011;26535;48.788;9.214;2024-03-08T18:57:47;16.77;;;9.60;;
40815;SDS011;26535;48.788;9.214;2024-03-08T19:00:13;19.13;;;9.60;;
40815;SDS011;26535;48.788;9.214;2024-03-08T19:02:47;17.77;;;9.85;;
40815;SDS011;26535;48.788;9.214;2024-03-08T19:05:14;18.77;;;10.98;;
40815;SDS011;26535;48.788;9.214;2024-03-08T19:10:16;16.42;;;9.18;;
40815;SDS011;26535;48.788;9.214;2024-03-08T19:12:47;20.08;;;10.00;;
40815;SDS011;26535;48.788;9.214;2024-03-08T19:15:17;18.60;;;9.88;;
40815;SDS011;26535;48.788;9.214;2024-03-08T19:17:45;17.63;;;9.73;;
40815;SDS011;26535;48.788;9.214;2024-03-08T19:20:15;16.00;;;9.10;;
40815;SDS011;26535;48.788;9.214;2024-03-08T19:22:48;17.13;;;9.63;;
40815;SDS011;26535;48.788;9.214;2024-03-08T19:25:26;14.95;;;9.20;;
40815;SDS011;26535;48.788;9.214;2024-03-08T19:27:57;17.23;;;9.68;;
40815;SDS011;26535;48.788;9.214;2024-03-08T19:30:25;17.33;;;10.18;;
40815;SDS011;26535;48.788;9.214;2024-03-08T19:32:56;15.55;;;9.38;;
40815;SDS011;26535;48.788;9.214;2024-03-08T19:35:23;20.30;;;9.90;;
40815;SDS011;26535;48.788;9.214;2024-03-08T19:37:50;18.13;;;9.98;;
40815;SDS011;26535;48.788;9.214;2024-03-08T19:40:20;16.05;;;8.88;;
40815;SDS011;26535;48.788;9.214;2024-03-08T19:42:51;16.85;;;8.93;;
40815;SDS011;26535;48.788;9.214;2024-03-08T19:45:18;16.27;;;8.57;;
40815;SDS011;26535;48.788;9.214;2024-03-08T19:47:44;15.55;;;8.70;;
40815;SDS011;26535;48.788;9.214;2024-03-08T19:50:11;16.33;;;9.20;;
40815;SDS011;26535;48.788;9.214;2024-03-08T19:52:46;14.75;;;8.63;;
40815;SDS011;26535;48.788;9.214;2024-03-08T19:55:13;15.75;;;8.88;;
40815;SDS011;26535;48.788;9.214;2024-03-08T19:57:45;15.50;;;9.20;;
40815;SDS011;26535;48.788;9.214;2024-03-08T20:00:16;16.88;;;9.00;;
40815;SDS011;26535;48.788;9.214;2024-03-08T20:02:46;15.93;;;9.20;;
40815;SDS011;26535;48.788;9.214;2024-03-08T20:05:13;16.10;;;9.43;;
40815;SDS011;26535;48.788;9.214;2024-03-08T20:07:41;16.27;;;9.32;;
40815;SDS011;26535;48.788;9.214;2024-03-08T20:10:08;17.02;;;9.27;;
40815;SDS011;26535;48.788;9.214;2024-03-08T20:12:39;16.10;;;9.60;;
40815;SDS011;26535;48.788;9.214;2024-03-08T20:15:07;14.43;;;8.85;;
40815;SDS011;26535;48.788;9.214;2024-03-08T20:17:35;16.27;;;9.40;;
40815;SDS011;26535;48.788;9.214;2024-03-08T20:20:05;13.68;;;8.85;;
40815;SDS011;26535;48.788;9.214;2024-03-08T20:22:32;17.70;;;9.77;;
40815;SDS011;26535;48.788;9.214;2024-03-08T20:24:58;17.02;;;9.60;;
40815;SDS011;26535;48.788;9.214;2024-03-08T20:27:24;16.48;;;9.13;;
40815;SDS011;26535;48.788;9.214;2024-03-08T20:29:52;16.13;;;10.00;;
40815;SDS011;26535;48.788;9.214;2024-03-08T20:32:18;17.75;;;9.43;;
40815;SDS011;26535;48.788;9.214;2024-03-08T20:34:44;17.58;;;10.25;;